createdAt,value
2018-12-23T00:00:29.093Z,8.90
2018-12-23T00:02:57.518Z,8.90
2018-12-23T00:05:26.284Z,8.90
2018-12-23T00:07:54.731Z,8.90
2018-12-23T00:10:23.159Z,8.80
2018-12-23T00:12:51.601Z,8.80
2018-12-23T00:15:20.032Z,8.70
2018-12-23T00:17:48.449Z,8.70
2018-12-23T00:20:16.893Z,8.60
2018-12-23T00:22:45.303Z,8.60
2018-12-23T00:25:13.887Z,8.60
2018-12-23T00:27:42.387Z,8.60
2018-12-23T00:30:10.932Z,8.60
2018-12-23T00:32:39.329Z,8.60
2018-12-23T00:35:07.913Z,8.70
2018-12-23T00:37:36.328Z,8.80
2018-12-23T00:40:05.644Z,8.80
2018-12-23T00:42:34.232Z,8.90
2018-12-23T00:45:02.653Z,8.90
2018-12-23T00:47:31.093Z,8.90
2018-12-23T00:49:59.521Z,8.90
2018-12-23T00:52:27.915Z,8.90
2018-12-23T00:54:56.352Z,8.90
2018-12-23T00:57:24.761Z,8.80
2018-12-23T00:59:53.191Z,8.80
2018-12-23T01:02:22.045Z,8.70
2018-12-23T01:04:50.469Z,8.60
2018-12-23T01:07:19.093Z,8.60
2018-12-23T01:09:47.470Z,8.50
2018-12-23T01:12:15.927Z,8.50
2018-12-23T01:14:44.394Z,8.50
2018-12-23T01:17:12.893Z,8.50
2018-12-23T01:19:41.308Z,8.50
2018-12-23T01:22:09.708Z,8.50
2018-12-23T01:24:38.148Z,8.50
2018-12-23T01:27:06.600Z,8.50
2018-12-23T01:29:35.003Z,8.50
2018-12-23T01:32:03.418Z,8.50
2018-12-23T01:34:37.067Z,8.50
2018-12-23T01:37:02.258Z,8.50
2018-12-23T01:39:31.071Z,8.50
2018-12-23T01:41:59.512Z,8.50
2018-12-23T01:44:27.971Z,8.50
2018-12-23T01:46:56.453Z,8.50
2018-12-23T01:49:24.914Z,8.60
2018-12-23T01:51:53.332Z,8.60
2018-12-23T01:54:21.770Z,8.50
2018-12-23T01:56:50.171Z,8.50
2018-12-23T01:59:18.670Z,8.50
2018-12-23T02:01:47.080Z,8.40
2018-12-23T02:04:15.556Z,8.40
2018-12-23T02:06:43.985Z,8.40
2018-12-23T02:09:12.383Z,8.40
2018-12-23T02:11:40.872Z,8.40
2018-12-23T02:14:09.295Z,8.40
2018-12-23T02:16:37.727Z,8.40
2018-12-23T02:19:06.136Z,8.40
2018-12-23T02:21:34.577Z,8.50
2018-12-23T02:24:03.380Z,8.50
2018-12-23T02:26:31.852Z,8.50
2018-12-23T02:29:00.380Z,8.60
2018-12-23T02:31:28.870Z,8.60
2018-12-23T02:33:57.321Z,8.60
2018-12-23T02:36:25.745Z,8.50
2018-12-23T02:38:54.183Z,8.50
2018-12-23T02:41:31.349Z,8.50
2018-12-23T02:43:53.240Z,8.50
2018-12-23T02:46:21.654Z,8.50
2018-12-23T02:48:50.067Z,8.50
2018-12-23T02:51:18.483Z,8.50
2018-12-23T02:53:46.885Z,8.50
2018-12-23T02:56:15.321Z,8.50
2018-12-23T02:58:44.365Z,8.50
2018-12-23T03:01:12.764Z,8.50
2018-12-23T03:03:41.160Z,8.50
2018-12-23T03:06:09.581Z,8.40
2018-12-23T03:08:37.979Z,8.40
2018-12-23T03:11:06.411Z,8.40
2018-12-23T03:13:35.074Z,8.40
2018-12-23T03:16:03.648Z,8.40
2018-12-23T03:18:32.076Z,8.30
2018-12-23T03:21:00.470Z,8.30
2018-12-23T03:23:29.007Z,8.30
2018-12-23T03:25:57.397Z,8.30
2018-12-23T03:28:25.810Z,8.30
2018-12-23T03:30:54.227Z,8.30
2018-12-23T03:33:22.638Z,8.40
2018-12-23T03:35:51.196Z,8.40
2018-12-23T03:38:19.601Z,8.40
2018-12-23T03:40:47.985Z,8.40
2018-12-23T03:43:16.403Z,8.40
2018-12-23T03:45:44.814Z,8.40
2018-12-23T03:48:13.237Z,8.40
2018-12-23T03:50:41.645Z,8.40
2018-12-23T03:53:10.086Z,8.40
2018-12-23T03:55:38.498Z,8.40
2018-12-23T03:58:06.931Z,8.40
2018-12-23T04:00:35.345Z,8.50
2018-12-23T04:03:03.761Z,8.50
2018-12-23T04:05:32.210Z,8.50
2018-12-23T04:08:00.605Z,8.50
2018-12-23T04:10:29.195Z,8.50
2018-12-23T04:12:57.630Z,8.50
2018-12-23T04:15:26.073Z,8.50
2018-12-23T04:17:54.484Z,8.50
2018-12-23T04:20:22.892Z,8.50
2018-12-23T04:22:51.331Z,8.50
2018-12-23T04:25:19.737Z,8.50
2018-12-23T04:27:48.163Z,8.50
2018-12-23T04:30:16.580Z,8.50
2018-12-23T04:32:44.994Z,8.50
2018-12-23T04:35:13.393Z,8.60
2018-12-23T04:37:41.828Z,8.60
2018-12-23T04:40:10.218Z,8.50
2018-12-23T04:42:38.611Z,8.50
2018-12-23T04:45:07.063Z,8.50
2018-12-23T04:47:35.447Z,8.50
2018-12-23T04:50:04.454Z,8.40
2018-12-23T04:52:32.980Z,8.40
2018-12-23T04:55:01.382Z,8.40
2018-12-23T04:57:29.801Z,8.40
2018-12-23T04:59:58.217Z,8.40
2018-12-23T05:02:26.634Z,8.30
2018-12-23T05:04:55.036Z,8.30
2018-12-23T05:07:23.462Z,8.40
2018-12-23T05:09:51.861Z,8.40
2018-12-23T05:12:20.264Z,8.30
2018-12-23T05:14:48.692Z,8.40
2018-12-23T05:17:17.240Z,8.40
2018-12-23T05:19:45.627Z,8.40
2018-12-23T05:22:14.022Z,8.40
2018-12-23T05:24:42.537Z,8.40
2018-12-23T05:27:11.022Z,8.40
2018-12-23T05:29:39.410Z,8.40
2018-12-23T05:32:07.831Z,8.40
2018-12-23T05:34:36.223Z,8.40
2018-12-23T05:37:04.619Z,8.40
2018-12-23T05:39:33.043Z,8.40
2018-12-23T05:42:01.473Z,8.40
2018-12-23T05:44:30.048Z,8.50
2018-12-23T05:46:58.479Z,8.50
2018-12-23T05:49:26.897Z,8.50
2018-12-23T05:51:55.323Z,8.50
2018-12-23T05:54:23.706Z,8.50
2018-12-23T05:56:52.227Z,8.50
2018-12-23T05:59:20.636Z,8.50
2018-12-23T06:01:49.043Z,8.40
2018-12-23T06:04:17.445Z,8.40
2018-12-23T06:06:45.886Z,8.50
2018-12-23T06:09:14.264Z,8.50
2018-12-23T06:11:42.674Z,8.50
2018-12-23T06:14:11.136Z,8.50
2018-12-23T06:16:39.536Z,8.40
2018-12-23T06:19:07.939Z,8.40
2018-12-23T06:21:36.344Z,8.40
2018-12-23T06:24:04.723Z,8.40
2018-12-23T06:26:33.203Z,8.40
2018-12-23T06:29:01.625Z,8.50
2018-12-23T06:31:30.122Z,8.50
2018-12-23T06:33:58.526Z,8.40
2018-12-23T06:36:26.936Z,8.50
2018-12-23T06:38:55.348Z,8.50
2018-12-23T06:41:24.016Z,8.50
2018-12-23T06:43:52.517Z,8.40
2018-12-23T06:46:20.903Z,8.40
2018-12-23T06:48:49.319Z,8.40
2018-12-23T06:51:17.794Z,8.40
2018-12-23T06:53:46.193Z,8.40
2018-12-23T06:56:14.600Z,8.40
2018-12-23T06:58:43.019Z,8.40
2018-12-23T07:01:11.457Z,8.50
2018-12-23T07:03:39.872Z,8.50
2018-12-23T07:06:08.292Z,8.50
2018-12-23T07:08:36.716Z,8.50
2018-12-23T07:11:05.137Z,8.50
2018-12-23T07:13:33.574Z,8.40
2018-12-23T07:16:01.994Z,8.40
2018-12-23T07:18:30.384Z,8.40
2018-12-23T07:20:58.819Z,8.40
2018-12-23T07:23:27.361Z,8.40
2018-12-23T07:25:55.775Z,8.40
2018-12-23T07:28:24.224Z,8.60
2018-12-23T07:30:52.659Z,8.60
2018-12-23T07:33:21.108Z,8.70
2018-12-23T07:35:49.630Z,8.70
2018-12-23T07:38:18.108Z,8.80
2018-12-23T07:40:46.541Z,8.80
2018-12-23T07:43:15.002Z,8.80
2018-12-23T07:45:43.435Z,8.80
2018-12-23T07:48:11.868Z,8.80
2018-12-23T07:50:40.285Z,8.80
2018-12-23T07:53:08.724Z,8.80
2018-12-23T07:55:37.147Z,8.90
2018-12-23T07:58:05.587Z,8.90
2018-12-23T08:00:33.982Z,8.90
2018-12-23T08:03:02.382Z,8.90
2018-12-23T08:05:30.814Z,8.90
2018-12-23T08:07:59.217Z,8.90
2018-12-23T08:10:27.649Z,8.90
2018-12-23T08:12:56.075Z,9.00
2018-12-23T08:15:24.467Z,9.00
2018-12-23T08:17:52.904Z,9.00
2018-12-23T08:20:21.305Z,9.00
2018-12-23T08:22:49.731Z,9.00
2018-12-23T08:25:18.139Z,9.00
2018-12-23T08:27:46.574Z,9.00
2018-12-23T08:30:15.095Z,9.10
2018-12-23T08:32:43.494Z,9.10
2018-12-23T08:35:11.922Z,9.10
2018-12-23T08:37:44.588Z,9.20
2018-12-23T08:40:10.781Z,9.20
2018-12-23T08:42:39.185Z,9.30
2018-12-23T08:45:07.605Z,9.40
2018-12-23T08:47:36.037Z,9.40
2018-12-23T08:50:04.744Z,9.50
2018-12-23T08:52:33.238Z,9.50
2018-12-23T08:55:01.663Z,9.60
2018-12-23T08:57:30.069Z,9.60
2018-12-23T08:59:58.469Z,9.70
2018-12-23T09:02:26.884Z,9.70
2018-12-23T09:04:55.290Z,9.70
2018-12-23T09:07:23.735Z,9.80
2018-12-23T09:09:52.128Z,9.80
2018-12-23T09:12:20.523Z,9.70
2018-12-23T09:14:49.016Z,9.70
2018-12-23T09:17:17.461Z,9.80
2018-12-23T09:19:45.851Z,9.80
2018-12-23T09:22:14.318Z,9.80
2018-12-23T09:24:42.734Z,9.90
2018-12-23T09:27:11.155Z,9.90
2018-12-23T09:29:39.596Z,9.90
2018-12-23T09:32:07.989Z,9.90
2018-12-23T09:34:36.449Z,9.90
2018-12-23T09:37:04.855Z,9.80
2018-12-23T09:39:33.291Z,9.90
2018-12-23T09:42:01.745Z,9.80
2018-12-23T09:44:30.207Z,9.80
2018-12-23T09:46:58.632Z,9.70
2018-12-23T09:49:27.033Z,9.70
2018-12-23T09:51:55.447Z,9.70
2018-12-23T09:54:23.954Z,9.70
2018-12-23T09:56:53.163Z,9.60
2018-12-23T09:59:21.870Z,9.60
2018-12-23T10:01:50.300Z,9.60
2018-12-23T10:04:18.687Z,9.60
2018-12-23T10:06:47.089Z,9.50
2018-12-23T10:09:15.519Z,9.40
2018-12-23T10:11:43.927Z,9.50
2018-12-23T10:14:12.438Z,9.60
2018-12-23T10:16:40.848Z,9.70
2018-12-23T10:19:09.290Z,9.80
2018-12-23T10:21:37.709Z,9.80
2018-12-23T10:24:06.112Z,9.90
2018-12-23T10:26:34.576Z,9.90
2018-12-23T10:29:03.019Z,9.90
2018-12-23T10:31:31.530Z,9.90
2018-12-23T10:33:59.962Z,9.90
2018-12-23T10:36:28.394Z,10.70
2018-12-23T10:38:56.844Z,11.60
2018-12-23T10:41:25.277Z,12.20
2018-12-23T10:43:53.705Z,12.50
2018-12-23T10:46:22.128Z,11.80
2018-12-23T10:48:50.553Z,11.20
2018-12-23T10:51:19.015Z,10.80
2018-12-23T10:53:47.451Z,10.70
2018-12-23T10:56:16.025Z,10.50
2018-12-23T10:58:44.428Z,10.40
2018-12-23T11:01:12.843Z,10.10
2018-12-23T11:03:41.248Z,9.90
2018-12-23T11:06:09.663Z,9.70
2018-12-23T11:08:38.043Z,9.50
2018-12-23T11:11:06.459Z,9.50
2018-12-23T11:13:34.873Z,9.50
2018-12-23T11:16:03.344Z,9.40
2018-12-23T11:18:31.879Z,9.40
2018-12-23T11:21:00.289Z,9.40
2018-12-23T11:23:29.198Z,9.40
2018-12-23T11:25:57.692Z,9.30
2018-12-23T11:28:26.091Z,9.30
2018-12-23T11:30:54.501Z,9.30
2018-12-23T11:33:22.921Z,9.30
2018-12-23T11:35:51.330Z,9.30
2018-12-23T11:38:19.728Z,9.30
2018-12-23T11:40:48.224Z,9.30
2018-12-23T11:43:16.594Z,9.40
2018-12-23T11:45:44.992Z,9.40
2018-12-23T11:48:13.403Z,9.50
2018-12-23T11:50:41.803Z,9.50
2018-12-23T11:53:10.219Z,9.50
2018-12-23T11:55:38.621Z,9.60
2018-12-23T11:58:07.049Z,9.50
2018-12-23T12:00:35.453Z,9.50
2018-12-23T12:03:10.356Z,9.60
2018-12-23T12:05:38.754Z,9.50
2018-12-23T12:08:07.160Z,9.60
2018-12-23T12:10:35.580Z,9.60
2018-12-23T12:13:03.997Z,9.70
2018-12-23T12:15:32.398Z,9.70
2018-12-23T12:18:00.845Z,9.70
2018-12-23T12:20:29.230Z,9.70
2018-12-23T12:22:57.624Z,9.70
2018-12-23T12:25:26.030Z,9.60
2018-12-23T12:27:54.429Z,9.60
2018-12-23T12:30:22.880Z,9.60
2018-12-23T12:32:51.332Z,9.60
2018-12-23T12:35:19.787Z,9.60
2018-12-23T12:37:48.207Z,9.50
2018-12-23T12:40:16.619Z,9.40
2018-12-23T12:42:45.025Z,9.30
2018-12-23T12:45:13.465Z,9.30
2018-12-23T12:47:41.874Z,9.20
2018-12-23T12:50:10.298Z,9.20
2018-12-23T12:52:38.708Z,9.20
2018-12-23T12:55:07.108Z,9.20
2018-12-23T12:57:35.547Z,9.20
2018-12-23T13:00:04.138Z,9.10
2018-12-23T13:02:32.574Z,9.10
2018-12-23T13:05:01.007Z,9.10
2018-12-23T13:07:29.395Z,9.00
2018-12-23T13:09:57.792Z,9.00
2018-12-23T13:12:26.212Z,9.00
2018-12-23T13:14:54.742Z,9.00
2018-12-23T13:17:23.201Z,9.00
2018-12-23T13:19:51.804Z,8.90
2018-12-23T13:22:20.243Z,8.80
2018-12-23T13:24:48.653Z,8.80
2018-12-23T13:27:17.051Z,8.80
2018-12-23T13:29:45.518Z,8.80
2018-12-23T13:32:13.919Z,8.80
2018-12-23T13:34:42.339Z,8.70
2018-12-23T13:37:10.775Z,8.70
2018-12-23T13:39:39.203Z,8.70
2018-12-23T13:42:22.404Z,8.80
2018-12-23T13:44:59.425Z,8.70
2018-12-23T13:47:39.779Z,8.70
2018-12-23T13:50:25.305Z,8.70
2018-12-23T13:53:36.652Z,8.70
2018-12-23T13:57:14.863Z,8.70
2018-12-23T14:00:03.380Z,8.70
2018-12-23T14:04:41.442Z,8.70
2018-12-23T14:08:24.640Z,8.70
2018-12-23T14:11:36.222Z,8.60
2018-12-23T14:14:04.639Z,8.60
2018-12-23T14:16:33.075Z,8.50
2018-12-23T14:19:01.480Z,8.50
2018-12-23T14:21:29.924Z,8.50
2018-12-23T14:23:58.342Z,8.40
2018-12-23T14:26:26.769Z,8.40
2018-12-23T14:28:55.201Z,8.40
2018-12-23T14:31:23.608Z,8.40
2018-12-23T14:33:52.023Z,8.40
2018-12-23T14:36:20.438Z,8.30
2018-12-23T14:38:48.846Z,8.30
2018-12-23T14:41:17.351Z,8.30
2018-12-23T14:43:45.752Z,8.30
2018-12-23T14:46:14.164Z,8.30
2018-12-23T14:48:42.585Z,8.20
2018-12-23T14:51:10.973Z,8.20
2018-12-23T14:53:39.400Z,8.30
2018-12-23T14:56:07.841Z,8.20
2018-12-23T14:58:37.895Z,8.20
2018-12-23T15:01:06.316Z,8.20
2018-12-23T15:03:34.720Z,8.20
2018-12-23T15:06:03.124Z,8.20
2018-12-23T15:08:31.557Z,8.20
2018-12-23T15:10:59.988Z,8.10
2018-12-23T15:13:28.383Z,8.10
2018-12-23T15:15:56.795Z,8.10
2018-12-23T15:18:25.560Z,8.10
2018-12-23T15:20:53.960Z,8.10
2018-12-23T15:23:22.432Z,8.00
2018-12-23T15:25:50.827Z,8.10
2018-12-23T15:28:19.235Z,8.10
2018-12-23T15:30:47.784Z,8.10
2018-12-23T15:33:16.262Z,8.10
2018-12-23T15:35:45.483Z,8.00
2018-12-23T15:38:13.872Z,8.00
2018-12-23T15:40:42.286Z,8.00
2018-12-23T15:43:10.699Z,8.00
2018-12-23T15:45:39.102Z,8.00
2018-12-23T15:48:07.603Z,8.00
2018-12-23T15:50:35.997Z,8.10
2018-12-23T15:53:04.410Z,8.00
2018-12-23T15:55:32.804Z,8.00
2018-12-23T15:58:01.217Z,8.00
2018-12-23T16:00:29.639Z,8.00
2018-12-23T16:02:58.040Z,8.00
2018-12-23T16:05:27.492Z,8.00
2018-12-23T16:07:55.901Z,8.00
2018-12-23T16:10:24.337Z,7.90
2018-12-23T16:12:52.740Z,7.90
2018-12-23T16:15:21.172Z,7.90
2018-12-23T16:17:49.605Z,7.90
2018-12-23T16:20:18.059Z,7.90
2018-12-23T16:22:46.487Z,7.90
2018-12-23T16:25:14.881Z,7.90
2018-12-23T16:27:43.310Z,7.90
2018-12-23T16:30:11.859Z,7.90
2018-12-23T16:32:40.293Z,7.90
2018-12-23T16:35:08.721Z,7.90
2018-12-23T16:37:37.151Z,7.90
2018-12-23T16:40:08.246Z,7.90
2018-12-23T16:42:36.643Z,7.90
2018-12-23T16:45:05.457Z,7.90
2018-12-23T16:47:33.871Z,7.90
2018-12-23T16:50:02.372Z,7.90
2018-12-23T16:52:30.784Z,7.90
2018-12-23T16:54:59.210Z,7.90
2018-12-23T16:57:27.606Z,7.90
2018-12-23T16:59:56.036Z,7.90
2018-12-23T17:02:24.500Z,7.90
2018-12-23T17:04:52.932Z,7.90
2018-12-23T17:07:21.350Z,7.90
2018-12-23T17:09:49.774Z,7.90
2018-12-23T17:12:45.944Z,7.90
2018-12-23T17:15:15.241Z,7.90
2018-12-23T17:17:44.528Z,7.90
2018-12-23T17:20:14.448Z,8.00
2018-12-23T17:22:43.784Z,8.00
2018-12-23T17:25:13.051Z,8.00
2018-12-23T17:27:42.345Z,8.00
2018-12-23T17:30:11.664Z,8.00
2018-12-23T17:32:40.985Z,7.90
2018-12-23T17:35:10.313Z,8.00
2018-12-23T17:37:39.608Z,8.00
2018-12-23T17:40:16.296Z,8.00
2018-12-23T17:42:39.933Z,8.00
2018-12-23T17:45:09.208Z,8.10
2018-12-23T17:47:38.517Z,8.00
2018-12-23T17:50:08.933Z,8.00
2018-12-23T17:52:38.202Z,8.10
2018-12-23T17:55:07.517Z,8.10
2018-12-23T17:57:36.867Z,8.10
2018-12-23T18:00:06.423Z,8.10
2018-12-23T18:02:35.706Z,8.10
2018-12-23T18:05:05.349Z,8.10
2018-12-23T18:07:34.613Z,8.10
2018-12-23T18:10:03.926Z,8.10
2018-12-23T18:12:33.272Z,8.10
2018-12-23T18:15:02.569Z,8.10
2018-12-23T18:17:31.953Z,8.20
2018-12-23T18:20:01.246Z,8.30
2018-12-23T18:22:30.555Z,8.30
2018-12-23T18:24:59.825Z,8.30
2018-12-23T18:27:29.105Z,8.40
2018-12-23T18:29:58.386Z,8.40
2018-12-23T18:32:27.726Z,8.40
2018-12-23T18:34:56.997Z,8.50
2018-12-23T18:37:26.296Z,8.50
2018-12-23T18:39:55.570Z,8.50
2018-12-23T18:42:24.818Z,8.50
2018-12-23T18:44:54.104Z,8.50
2018-12-23T18:47:23.381Z,8.50
2018-12-23T18:49:52.674Z,8.50
2018-12-23T18:52:21.957Z,8.50
2018-12-23T18:54:51.249Z,8.50
2018-12-23T18:57:21.865Z,8.60
2018-12-23T18:59:52.286Z,8.60
2018-12-23T19:02:30.328Z,8.70
2018-12-23T19:04:59.603Z,8.70
2018-12-23T19:07:28.874Z,8.80
2018-12-23T19:10:42.053Z,8.90
2018-12-23T19:13:46.025Z,9.00
2018-12-23T19:16:57.472Z,9.10
2018-12-23T19:19:48.003Z,9.00
2018-12-23T19:23:13.869Z,9.10
2018-12-23T19:26:37.029Z,9.20
2018-12-23T19:29:28.493Z,9.20
2018-12-23T19:32:41.653Z,9.30
2018-12-23T19:35:48.127Z,9.40
2018-12-23T19:39:01.440Z,9.40
2018-12-23T19:42:07.880Z,9.50
2018-12-23T19:45:18.320Z,9.60
2018-12-23T19:48:36.207Z,9.70
2018-12-23T19:51:41.488Z,9.80
2018-12-23T19:54:53.359Z,9.90
2018-12-23T19:57:56.989Z,10.00
2018-12-23T20:01:13.385Z,10.10
2018-12-23T20:04:22.973Z,10.20
2018-12-23T20:07:23.018Z,10.30
2018-12-23T20:10:59.105Z,10.40
2018-12-23T20:14:24.853Z,10.40
2018-12-23T20:17:17.316Z,10.50
2018-12-23T20:20:29.583Z,10.60
2018-12-23T20:23:37.049Z,10.60
2018-12-23T20:27:08.626Z,10.60
2018-12-23T20:30:04.400Z,10.70
2018-12-23T20:33:29.864Z,10.80
2018-12-23T20:36:35.003Z,10.80
2018-12-23T20:39:45.704Z,10.80
2018-12-23T20:42:38.209Z,10.90
2018-12-23T20:45:44.233Z,10.90
2018-12-23T20:48:57.661Z,10.90
2018-12-23T20:52:22.786Z,10.90
2018-12-23T20:55:38.019Z,10.90
2018-12-23T20:58:43.956Z,10.90
2018-12-23T21:01:38.548Z,11.00
2018-12-23T21:04:43.773Z,11.00
2018-12-23T21:08:03.755Z,11.00
2018-12-23T21:11:16.126Z,10.90
2018-12-23T21:14:05.271Z,10.90
2018-12-23T21:16:46.191Z,10.50
2018-12-23T21:19:56.938Z,10.30
2018-12-23T21:22:47.874Z,10.20
2018-12-23T21:26:03.250Z,10.00
2018-12-23T21:29:24.778Z,9.80
2018-12-23T21:32:56.306Z,9.60
2018-12-23T21:35:49.696Z,9.60
2018-12-23T21:38:43.008Z,9.50
2018-12-23T21:41:52.361Z,9.40
2018-12-23T21:44:49.761Z,9.30
2018-12-23T21:47:53.885Z,9.10
2018-12-23T21:50:46.589Z,9.10
2018-12-23T21:53:49.419Z,9.10
2018-12-23T21:57:03.083Z,9.00
2018-12-23T22:00:00.876Z,8.90
2018-12-23T22:03:02.762Z,8.90
2018-12-23T22:06:16.887Z,8.90
2018-12-23T22:09:29.007Z,8.80
2018-12-23T22:12:24.762Z,8.80
2018-12-23T22:14:54.029Z,8.70
2018-12-23T22:17:23.286Z,8.60
2018-12-23T22:19:52.574Z,8.60
2018-12-23T22:22:21.883Z,8.60
2018-12-23T22:24:51.169Z,8.40
2018-12-23T22:27:20.445Z,8.30
2018-12-23T22:29:49.764Z,8.20
2018-12-23T22:32:19.048Z,8.10
2018-12-23T22:34:48.372Z,8.10
2018-12-23T22:37:17.729Z,8.00
2018-12-23T22:39:46.991Z,7.90
2018-12-23T22:42:16.273Z,7.80
2018-12-23T22:44:45.602Z,7.70
2018-12-23T22:47:14.860Z,7.80
2018-12-23T22:49:44.156Z,7.70
2018-12-23T22:52:13.492Z,7.70
2018-12-23T22:54:42.772Z,7.70
2018-12-23T22:57:12.453Z,7.70
2018-12-23T22:59:41.758Z,7.50
2018-12-23T23:02:11.040Z,7.50
2018-12-23T23:04:40.350Z,7.50
2018-12-23T23:07:09.626Z,7.50
2018-12-23T23:09:38.986Z,7.60
2018-12-23T23:12:08.277Z,7.50
2018-12-23T23:14:37.559Z,7.50
2018-12-23T23:17:06.858Z,7.40
2018-12-23T23:19:36.341Z,7.40
2018-12-23T23:22:05.611Z,7.50
2018-12-23T23:24:34.896Z,7.50
2018-12-23T23:27:04.217Z,7.50
2018-12-23T23:29:33.484Z,7.60
2018-12-23T23:32:02.891Z,7.50
2018-12-23T23:34:32.233Z,7.50
2018-12-23T23:37:01.512Z,7.50
2018-12-23T23:39:30.793Z,7.40
2018-12-23T23:42:00.077Z,7.40
2018-12-23T23:44:30.430Z,7.40
2018-12-23T23:46:59.781Z,7.30
2018-12-23T23:49:29.069Z,7.30
2018-12-23T23:51:58.375Z,7.20
2018-12-23T23:54:27.628Z,7.20
2018-12-23T23:56:56.902Z,7.20
2018-12-23T23:59:26.185Z,7.20
